< Typhoon 195422 1954 Season Typhoon 195501 >
Typhoon 195423 (NO-NAME)
General InformationTrack Information on Google Maps || Disaster Info.ResourceGoogle EarthGE AnimationAtom FeedGeoJSON
Detalied Best Track (Time Zone = UTC)
Year Month Day Hour Lat. Long. Pressure (hPa) Wind (kt) Class Image Chart
1954 12 23 00 7.6 135.5 1000 0 2 -- Chart
1954 12 23 06 7.5 134.2 1000 0 2 -- Chart
1954 12 23 12 7.7 132.8 1000 0 2 -- Chart
1954 12 23 18 7.8 131.3 1000 0 2 -- Chart
1954 12 24 00 8.0 129.9 995 0 2 -- Chart
1954 12 24 06 8.4 128.4 990 0 9 -- Chart
1954 12 24 12 8.8 127.3 990 0 9 -- Chart
1954 12 24 18 9.0 126.1 990 0 9 -- Chart
1954 12 25 00 9.5 125.0 990 0 9 -- Chart
1954 12 25 06 9.7 123.9 990 0 9 -- Chart
1954 12 25 12 9.8 122.8 990 0 9 -- Chart
1954 12 25 18 9.9 121.8 990 0 9 -- Chart
1954 12 26 00 10.1 120.8 995 0 9 -- Chart
1954 12 26 06 10.2 119.7 1000 0 9 -- Chart
1954 12 26 12 10.4 119.1 1002 0 2 -- Chart
1954 12 26 18 10.6 118.5 1004 0 2 -- Chart
1954 12 27 00 10.5 118.0 1004 0 2 -- Chart
1954 12 27 06 10.5 117.5 1006 0 2 -- Chart
1954 12 27 12 10.5 117.2 1006 0 2 -- Chart
1954 12 27 18 10.5 116.8 1006 0 2 -- Chart
1954 12 28 00 10.4 116.4 1006 0 2 -- Chart
1954 12 28 06 10.4 116.1 1006 0 2 -- Chart
1954 12 28 12 10.4 115.8 1006 0 2 -- Chart
1954 12 28 18 10.4 115.5 1006 0 2 -- Chart
1954 12 29 00 10.4 115.3 1006 0 2 -- Chart
Japan Meteorological Agency Best Track Data | Correction Date : 1989-06-01
< Typhoon 195422 1954 Season Typhoon 195501 >

Help